Time;durP1;ratioP1;P1;durP2;ratioP2;P2;SDS_P1;SDS_P2;PMS_P1;PMS_P2;Temp;Humidity;BMP_temperature;BMP_pressure;BME280_temperature;BME280_humidity;BME280_pressure;Samples;Min_cycle;Max_cycle;Signal;HPM_P1;HPM_P2
2022/12/14 00:00:35;;;;;;;;;;;;;;;;;;7367137;19;831;-64
2022/12/14 00:03:03;;;;;;;;;;;;;;;;;;7372147;19;1772;-64
2022/12/14 00:05:31;;;;;;;;;;;;;;;;;;7368359;19;863;-64
2022/12/14 00:07:59;;;;;;;;;;;;;;;;;;7365721;19;1861;-65
2022/12/14 00:10:27;;;;;;;;;;;;;;;;;;7368655;19;785;-64
2022/12/14 00:12:55;;;;;;;;;;;;;;;;;;7367122;19;831;-63
2022/12/14 00:15:24;;;;;;;;;;;;;;;;;;7368860;19;865;-64
2022/12/14 00:17:53;;;;;;;;;;;;;;;;;;7367036;19;1860;-64
2022/12/14 00:20:21;;;;;;;;;;;;;;;;;;7367209;19;831;-64
2022/12/14 00:22:49;;;;;;;;;;;;;;;;;;7367862;19;747;-64
2022/12/14 00:25:17;;;;;;;;;;;;;;;;;;7368869;19;815;-65
2022/12/14 00:27:45;;;;;;;;;;;;;;;;;;7365990;19;1889;-64
2022/12/14 00:30:14;;;;;;;;;;;;;;;;;;7368135;19;800;-63
2022/12/14 00:32:42;;;;;;;;;;;;;;;;;;7367916;19;802;-64
2022/12/14 00:35:11;;;;;;;;;;;;;;;;;;7367379;19;837;-63
2022/12/14 00:37:39;;;;;;;;;;;;;;;;;;7365714;19;1831;-65
2022/12/14 00:40:07;;;;;;;;;;;;;;;;;;7367124;19;863;-64
2022/12/14 00:42:35;;;;;;;;;;;;;;;;;;7367887;19;804;-64
2022/12/14 00:45:03;;;;;;;;;;;;;;;;;;7367490;19;858;-63
2022/12/14 00:47:31;;;;;;;;;;;;;;;;;;7365483;19;1840;-63
2022/12/14 00:50:00;;;;;;;;;;;;;;;;;;7371405;19;1778;-64
2022/12/14 00:52:28;;;;;;;;;;;;;;;;;;7367909;19;853;-64
2022/12/14 00:54:56;;;;;;;;;;;;;;;;;;7371217;19;1781;-64
2022/12/14 00:57:24;;;;;;;;;;;;;;;;;;7366443;19;1843;-64
2022/12/14 00:59:52;;;;;;;;;;;;;;;;;;7367345;19;791;-64
2022/12/14 01:02:21;;;;;;;;;;;;;;;;;;7367206;19;861;-63
2022/12/14 01:04:49;;;;;;;;;;;;;;;;;;7366914;19;850;-64
2022/12/14 01:07:17;;;;;;;;;;;;;;;;;;7365919;19;1845;-63
2022/12/14 01:09:45;;;;;;;;;;;;;;;;;;7365682;19;831;-64
2022/12/14 01:12:13;;;;;;;;;;;;;;;;;;7365584;19;869;-64
2022/12/14 01:14:41;;;;;;;;;;;;;;;;;;7367606;19;898;-63
2022/12/14 01:17:09;;;;;;;;;;;;;;;;;;7365808;19;1798;-63
2022/12/14 01:19:38;;;;;;;;;;;;;;;;;;7371187;19;1848;-64
2022/12/14 01:22:06;;;;;;;;;;;;;;;;;;7367545;19;824;-63
2022/12/14 01:24:34;;;;;;;;;;;;;;;;;;7367368;19;782;-63
2022/12/14 01:27:02;;;;;;;;;;;;;;;;;;7364706;19;1845;-64
2022/12/14 01:29:30;;;;;;;;;;;;;;;;;;7367171;19;1579;-64
2022/12/14 01:31:58;;;;;;;;;;;;;;;;;;7363547;19;835;-63
2022/12/14 01:34:26;;;;;;;;;;;;;;;;;;7363950;19;891;-62
2022/12/14 01:36:54;;;;;;;;;;;;;;;;;;7361828;19;1369;-64
2022/12/14 01:39:23;;;;;;;;;;;;;;;;;;7366796;19;1534;-62
2022/12/14 01:41:51;;;;;;;;;;;;;;;;;;7363195;19;823;-64
2022/12/14 01:44:19;;;;;;;;;;;;;;;;;;7364396;19;1623;-64
2022/12/14 01:46:48;;;;;;;;;;;;;;;;;;7363209;19;1861;-63
2022/12/14 01:49:16;;;;;;;;;;;;;;;;;;7365749;19;1821;-64
2022/12/14 01:51:44;;;;;;;;;;;;;;;;;;7363133;19;893;-63
2022/12/14 01:54:13;;;;;;;;;;;;;;;;;;7363870;19;838;-64
2022/12/14 01:56:41;;;;;;;;;;;;;;;;;;7365649;19;1823;-63
2022/12/14 01:59:09;;;;;;;;;;;;;;;;;;7361352;19;822;-64
2022/12/14 02:01:37;;;;;;;;;;;;;;;;;;7371153;19;830;-63
2022/12/14 02:04:06;;;;;;;;;;;;;;;;;;7370558;19;819;-63
2022/12/14 02:06:35;;;;;;;;;;;;;;;;;;7373901;19;1850;-65
2022/12/14 02:09:03;;;;;;;;;;;;;;;;;;7368981;19;842;-63
2022/12/14 02:11:31;;;;;;;;;;;;;;;;;;7370510;19;870;-63
2022/12/14 02:13:59;;;;;;;;;;;;;;;;;;7370300;19;818;-63
2022/12/14 02:16:27;;;;;;;;;;;;;;;;;;7373564;19;1811;-64
2022/12/14 02:18:56;;;;;;;;;;;;;;;;;;7369447;19;841;-64
2022/12/14 02:21:24;;;;;;;;;;;;;;;;;;7369584;19;864;-64
2022/12/14 02:23:52;;;;;;;;;;;;;;;;;;7372264;19;1823;-63
2022/12/14 02:26:30;;;;;;;;;;;;;;;;;;;;;
2022/12/14 02:29:03;;;;;;;;;;;;;;;;;;7401546;19;1699;-64
2022/12/14 02:31:32;;;;;;;;;;;;;;;;;;7400177;19;881;-63
2022/12/14 02:34:00;;;;;;;;;;;;;;;;;;7404475;19;1812;-64
2022/12/14 02:36:28;;;;;;;;;;;;;;;;;;7404941;19;1766;-63
2022/12/14 02:38:56;;;;;;;;;;;;;;;;;;7400178;19;901;-64
2022/12/14 02:41:24;;;;;;;;;;;;;;;;;;7400695;19;1705;-64
2022/12/14 02:43:52;;;;;;;;;;;;;;;;;;7400846;19;852;-64
2022/12/14 02:46:21;;;;;;;;;;;;;;;;;;7400727;19;1262;-63
2022/12/14 02:48:49;;;;;;;;;;;;;;;;;;7398323;19;1853;-65
2022/12/14 02:51:17;;;;;;;;;;;;;;;;;;7401037;19;1853;-63
2022/12/14 02:53:45;;;;;;;;;;;;;;;;;;7400670;19;826;-64
2022/12/14 02:56:13;;;;;;;;;;;;;;;;;;7399087;19;839;-63
2022/12/14 02:58:41;;;;;;;;;;;;;;;;;;7399098;19;874;-63
2022/12/14 03:01:09;;;;;;;;;;;;;;;;;;7400748;19;811;-63
2022/12/14 03:03:38;;;;;;;;;;;;;;;;;;7404960;19;1785;-63
2022/12/14 03:06:13;;;;;;;;;;;;;;;;;;7400162;19;803;-64
2022/12/14 03:08:41;;;;;;;;;;;;;;;;;;7398099;19;1837;-65
2022/12/14 03:11:09;;;;;;;;;;;;;;;;;;7399753;19;833;-62
2022/12/14 03:13:37;;;;;;;;;;;;;;;;;;7403883;19;1793;-63
2022/12/14 03:16:06;;;;;;;;;;;;;;;;;;7399596;19;736;-63
2022/12/14 03:18:34;;;;;;;;;;;;;;;;;;7399157;19;1797;-62
2022/12/14 03:21:02;;;;;;;;;;;;;;;;;;7402896;19;1751;-63
2022/12/14 03:23:30;;;;;;;;;;;;;;;;;;7399276;19;810;-63
2022/12/14 03:25:59;;;;;;;;;;;;;;;;;;7397767;19;854;-63
2022/12/14 03:28:27;;;;;;;;;;;;;;;;;;7396651;19;1851;-63
2022/12/14 03:30:56;;;;;;;;;;;;;;;;;;7403348;19;1788;-63
2022/12/14 03:33:24;;;;;;;;;;;;;;;;;;7399598;19;784;-64
2022/12/14 03:35:52;;;;;;;;;;;;;;;;;;7397414;19;793;-63
2022/12/14 03:38:20;;;;;;;;;;;;;;;;;;7392539;19;1274;-63
2022/12/14 03:40:49;;;;;;;;;;;;;;;;;;7373891;19;2025;-63
2022/12/14 03:43:17;;;;;;;;;;;;;;;;;;7370674;19;780;-64
2022/12/14 03:45:45;;;;;;;;;;;;;;;;;;7369192;19;867;-64
2022/12/14 03:48:13;;;;;;;;;;;;;;;;;;7367965;19;1843;-64
2022/12/14 03:50:41;;;;;;;;;;;;;;;;;;7372541;19;1567;-63
2022/12/14 03:53:09;;;;;;;;;;;;;;;;;;7368466;19;804;-62
2022/12/14 03:55:38;;;;;;;;;;;;;;;;;;7369404;19;854;-63
2022/12/14 03:58:06;;;;;;;;;;;;;;;;;;7367241;19;1836;-63
2022/12/14 04:00:34;;;;;;;;;;;;;;;;;;7369733;19;826;-62
2022/12/14 04:03:02;;;;;;;;;;;;;;;;;;7369139;19;817;-63
2022/12/14 04:05:30;;;;;;;;;;;;;;;;;;7373189;19;1840;-64
2022/12/14 04:07:58;;;;;;;;;;;;;;;;;;7366164;19;1853;-63
2022/12/14 04:21:12;;;;;;;;;;;;;;;;;;7369874;19;818;-64
2022/12/14 04:26:20;;;;;;;;;;;;;;;;;;7383318;19;1762;-64
2022/12/14 04:31:29;;;;;;;;;;;;;;;;;;7382880;19;1683;-64
2022/12/14 04:33:57;;;;;;;;;;;;;;;;;;7385752;19;2071;-63
2022/12/14 04:36:25;;;;;;;;;;;;;;;;;;7385164;19;1254;-64
2022/12/14 04:38:53;;;;;;;;;;;;;;;;;;7386919;19;795;-64
2022/12/14 04:41:22;;;;;;;;;;;;;;;;;;7386499;19;771;-64
2022/12/14 04:43:50;;;;;;;;;;;;;;;;;;7386973;19;1726;-63
2022/12/14 04:46:18;;;;;;;;;;;;;;;;;;7386089;19;1357;-64
2022/12/14 04:48:46;;;;;;;;;;;;;;;;;;7383269;19;1849;-63
2022/12/14 04:51:14;;;;;;;;;;;;;;;;;;7382771;19;732;-64
2022/12/14 04:53:42;;;;;;;;;;;;;;;;;;7384682;19;827;-64
2022/12/14 04:56:10;;;;;;;;;;;;;;;;;;7393059;19;1546;-64
2022/12/14 04:58:38;;;;;;;;;;;;;;;;;;7381318;19;1255;-63
2022/12/14 05:01:07;;;;;;;;;;;;;;;;;;7385804;19;784;-64
2022/12/14 05:03:35;;;;;;;;;;;;;;;;;;7383530;19;892;-64
2022/12/14 05:06:03;;;;;;;;;;;;;;;;;;7383015;19;1757;-64
2022/12/14 05:08:31;;;;;;;;;;;;;;;;;;7373563;19;1851;-62
2022/12/14 05:10:59;;;;;;;;;;;;;;;;;;7373223;19;2033;-64
2022/12/14 05:13:27;;;;;;;;;;;;;;;;;;7375933;19;862;-64
2022/12/14 05:15:55;;;;;;;;;;;;;;;;;;7375398;19;818;-64
2022/12/14 05:18:24;;;;;;;;;;;;;;;;;;7369094;19;1314;-64
2022/12/14 05:20:52;;;;;;;;;;;;;;;;;;7370101;19;922;-64
2022/12/14 05:23:20;;;;;;;;;;;;;;;;;;7375820;19;1707;-64
2022/12/14 05:25:48;;;;;;;;;;;;;;;;;;7370175;19;806;-63
2022/12/14 05:28:17;;;;;;;;;;;;;;;;;;7366552;19;1848;-64
2022/12/14 05:30:45;;;;;;;;;;;;;;;;;;7367889;19;869;-64
2022/12/14 05:33:13;;;;;;;;;;;;;;;;;;7372074;19;1881;-63
2022/12/14 05:35:41;;;;;;;;;;;;;;;;;;7367582;19;817;-64
2022/12/14 05:38:09;;;;;;;;;;;;;;;;;;7364228;19;1235;-64
2022/12/14 05:40:37;;;;;;;;;;;;;;;;;;7367218;19;858;-64
2022/12/14 05:43:06;;;;;;;;;;;;;;;;;;7371330;19;1811;-64
2022/12/14 05:45:34;;;;;;;;;;;;;;;;;;7367268;19;781;-64
2022/12/14 05:48:02;;;;;;;;;;;;;;;;;;7364779;19;1849;-65
2022/12/14 05:50:30;;;;;;;;;;;;;;;;;;7366951;19;855;-64
2022/12/14 05:53:00;;;;;;;;;;;;;;;;;;7366986;19;846;-64
2022/12/14 05:55:28;;;;;;;;;;;;;;;;;;7365972;19;894;-64
2022/12/14 05:57:56;;;;;;;;;;;;;;;;;;7364083;19;1870;-64
2022/12/14 06:00:24;;;;;;;;;;;;;;;;;;7366669;19;848;-64
2022/12/14 06:02:52;;;;;;;;;;;;;;;;;;7365470;19;775;-64
2022/12/14 06:05:21;;;;;;;;;;;;;;;;;;7366898;19;814;-64
2022/12/14 06:07:49;;;;;;;;;;;;;;;;;;7363411;19;1901;-64
2022/12/14 06:10:17;;;;;;;;;;;;;;;;;;7366344;19;826;-65
2022/12/14 06:12:45;;;;;;;;;;;;;;;;;;7366068;19;859;-64
2022/12/14 06:15:13;;;;;;;;;;;;;;;;;;7366870;19;831;-64
2022/12/14 06:17:41;;;;;;;;;;;;;;;;;;7363423;19;1931;-64
2022/12/14 06:20:09;;;;;;;;;;;;;;;;;;7365713;19;822;-64
2022/12/14 06:22:38;;;;;;;;;;;;;;;;;;7366280;19;883;-63
2022/12/14 06:25:06;;;;;;;;;;;;;;;;;;7365951;19;885;-63
2022/12/14 06:27:34;;;;;;;;;;;;;;;;;;7363694;19;1285;-64
2022/12/14 06:30:02;;;;;;;;;;;;;;;;;;7364884;19;1871;-64
2022/12/14 06:32:30;;;;;;;;;;;;;;;;;;7365728;19;846;-64
2022/12/14 06:34:58;;;;;;;;;;;;;;;;;;7365162;19;875;-63
2022/12/14 06:37:27;;;;;;;;;;;;;;;;;;7364431;19;1271;-64
2022/12/14 06:39:55;;;;;;;;;;;;;;;;;;7368523;19;1665;-64
2022/12/14 06:42:23;;;;;;;;;;;;;;;;;;7365871;19;2038;-64
2022/12/14 06:44:51;;;;;;;;;;;;;;;;;;7365495;19;831;-64
2022/12/14 06:47:19;;;;;;;;;;;;;;;;;;7364030;19;1321;-64
2022/12/14 06:49:47;;;;;;;;;;;;;;;;;;7364966;19;1850;-64
2022/12/14 06:52:16;;;;;;;;;;;;;;;;;;7366020;19;798;-64
2022/12/14 06:54:44;;;;;;;;;;;;;;;;;;7365592;19;819;-64
2022/12/14 06:57:12;;;;;;;;;;;;;;;;;;7363092;19;1259;-64
2022/12/14 06:59:40;;;;;;;;;;;;;;;;;;7369109;19;1712;-64
2022/12/14 07:02:09;;;;;;;;;;;;;;;;;;7365568;19;875;-64
2022/12/14 07:04:37;;;;;;;;;;;;;;;;;;7366360;19;799;-65
2022/12/14 07:07:06;;;;;;;;;;;;;;;;;;7365507;19;1262;-64
2022/12/14 07:09:34;;;;;;;;;;;;;;;;;;7366821;19;1860;-64
2022/12/14 07:12:02;;;;;;;;;;;;;;;;;;7370341;19;1515;-64
2022/12/14 07:14:30;;;;;;;;;;;;;;;;;;7369095;19;862;-64
2022/12/14 07:16:58;;;;;;;;;;;;;;;;;;7370246;19;1349;-66
2022/12/14 07:19:26;;;;;;;;;;;;;;;;;;7374591;19;1839;-64
2022/12/14 07:21:54;;;;;;;;;;;;;;;;;;7377229;19;1659;-63
2022/12/14 07:24:23;;;;;;;;;;;;;;;;;;7372789;19;810;-65
2022/12/14 07:26:52;;;;;;;;;;;;;;;;;;7371746;19;1294;-64
2022/12/14 07:29:20;;;;;;;;;;;;;;;;;;7373143;19;1842;-64
2022/12/14 07:31:48;;;;;;;;;;;;;;;;;;7375837;19;1775;-64
2022/12/14 07:34:17;;;;;;;;;;;;;;;;;;7372726;19;844;-63
2022/12/14 07:36:45;;;;;;;;;;;;;;;;;;7370885;19;1337;-64
2022/12/14 07:39:14;;;;;;;;;;;;;;;;;;7373712;19;1798;-65
2022/12/14 07:41:42;;;;;;;;;;;;;;;;;;7370883;19;798;-63
2022/12/14 07:44:10;;;;;;;;;;;;;;;;;;7372617;19;819;-64
2022/12/14 07:46:38;;;;;;;;;;;;;;;;;;7371569;19;1281;-64
2022/12/14 07:49:06;;;;;;;;;;;;;;;;;;7373163;19;1854;-63
2022/12/14 07:51:35;;;;;;;;;;;;;;;;;;7370324;19;825;-64
2022/12/14 07:54:03;;;;;;;;;;;;;;;;;;7374138;19;886;-64
2022/12/14 07:56:31;;;;;;;;;;;;;;;;;;7372203;19;1285;-64
2022/12/14 07:58:59;;;;;;;;;;;;;;;;;;7374282;19;1764;-64
2022/12/14 08:01:28;;;;;;;;;;;;;;;;;;7372233;19;827;-63
2022/12/14 08:03:56;;;;;;;;;;;;;;;;;;7371976;19;763;-64
2022/12/14 08:06:24;;;;;;;;;;;;;;;;;;7370161;19;1352;-64
2022/12/14 08:08:52;;;;;;;;;;;;;;;;;;7371364;19;2037;-63
2022/12/14 08:11:21;;;;;;;;;;;;;;;;;;7373066;19;879;-64
2022/12/14 08:13:49;;;;;;;;;;;;;;;;;;7372040;19;859;-64
2022/12/14 08:16:17;;;;;;;;;;;;;;;;;;7371865;19;761;-64
2022/12/14 08:18:45;;;;;;;;;;;;;;;;;;7373081;19;1807;-65
2022/12/14 08:21:14;;;;;;;;;;;;;;;;;;7373252;19;1775;-65
2022/12/14 08:23:42;;;;;;;;;;;;;;;;;;7370354;19;1814;-65
2022/12/14 08:26:11;;;;;;;;;;;;;;;;;;7370534;19;792;-64
2022/12/14 08:28:39;;;;;;;;;;;;;;;;;;7368967;19;2019;-64
2022/12/14 08:31:07;;;;;;;;;;;;;;;;;;7370904;19;745;-63
2022/12/14 08:33:35;;;;;;;;;;;;;;;;;;7370931;19;838;-64
2022/12/14 08:36:03;;;;;;;;;;;;;;;;;;7369723;19;835;-64
2022/12/14 08:38:32;;;;;;;;;;;;;;;;;;7368688;19;2125;-64
2022/12/14 08:41:00;;;;;;;;;;;;;;;;;;7368198;19;846;-64
2022/12/14 08:43:28;;;;;;;;;;;;;;;;;;7368657;19;849;-63
2022/12/14 08:45:56;;;;;;;;;;;;;;;;;;7370760;19;823;-65
2022/12/14 08:48:24;;;;;;;;;;;;;;;;;;7367515;19;1869;-65
2022/12/14 08:50:53;;;;;;;;;;;;;;;;;;7369578;19;898;-64
2022/12/14 08:53:21;;;;;;;;;;;;;;;;;;7369606;19;760;-64
2022/12/14 08:55:49;;;;;;;;;;;;;;;;;;7371269;19;2067;-63
2022/12/14 08:58:17;;;;;;;;;;;;;;;;;;7366735;19;1380;-63
2022/12/14 09:00:45;;;;;;;;;;;;;;;;;;7369392;19;805;-63
2022/12/14 09:03:13;;;;;;;;;;;;;;;;;;7369699;19;862;-63
2022/12/14 09:05:41;;;;;;;;;;;;;;;;;;7370137;19;1682;-64
2022/12/14 09:08:10;;;;;;;;;;;;;;;;;;7366327;19;1266;-64
2022/12/14 09:10:38;;;;;;;;;;;;;;;;;;7364613;19;1838;-64
2022/12/14 09:13:06;;;;;;;;;;;;;;;;;;7367868;19;794;-63
2022/12/14 09:15:34;;;;;;;;;;;;;;;;;;7371741;19;1812;-65
2022/12/14 09:18:02;;;;;;;;;;;;;;;;;;7365269;19;1288;-65
2022/12/14 09:20:30;;;;;;;;;;;;;;;;;;7368272;19;727;-64
2022/12/14 09:22:59;;;;;;;;;;;;;;;;;;7367654;19;877;-63
2022/12/14 09:25:27;;;;;;;;;;;;;;;;;;7369498;19;1811;-64
2022/12/14 09:27:55;;;;;;;;;;;;;;;;;;7367546;19;2100;-64
2022/12/14 09:30:24;;;;;;;;;;;;;;;;;;7367558;19;1838;-65
2022/12/14 09:32:52;;;;;;;;;;;;;;;;;;7368603;19;1770;-65
2022/12/14 09:35:21;;;;;;;;;;;;;;;;;;7372070;19;1814;-64
2022/12/14 09:37:49;;;;;;;;;;;;;;;;;;7364467;19;1274;-65
2022/12/14 09:40:17;;;;;;;;;;;;;;;;;;7368585;19;1689;-64
2022/12/14 09:42:46;;;;;;;;;;;;;;;;;;7366887;19;788;-64
2022/12/14 09:45:16;;;;;;;;;;;;;;;;;;7367484;19;877;-65
2022/12/14 09:47:45;;;;;;;;;;;;;;;;;;7366050;19;1827;-64
2022/12/14 09:50:14;;;;;;;;;;;;;;;;;;7365045;19;1846;-63
2022/12/14 09:52:42;;;;;;;;;;;;;;;;;;7367632;19;867;-66
2022/12/14 09:55:11;;;;;;;;;;;;;;;;;;7368795;19;1838;-64
2022/12/14 09:57:39;;;;;;;;;;;;;;;;;;7365209;19;1290;-63
2022/12/14 10:00:08;;;;;;;;;;;;;;;;;;7366774;19;810;-62
2022/12/14 10:02:40;;;;;;;;;;;;;;;;;;7366989;19;806;-62
2022/12/14 10:05:08;;;;;;;;;;;;;;;;;;7370013;19;1810;-62
2022/12/14 10:07:37;;;;;;;;;;;;;;;;;;7364918;19;1302;-63
2022/12/14 10:10:05;;;;;;;;;;;;;;;;;;7366686;19;1853;-63
2022/12/14 10:12:33;;;;;;;;;;;;;;;;;;7366544;19;799;-63
2022/12/14 10:15:02;;;;;;;;;;;;;;;;;;7367691;19;887;-63
2022/12/14 10:17:30;;;;;;;;;;;;;;;;;;7365154;19;1227;-62
2022/12/14 10:19:58;;;;;;;;;;;;;;;;;;7368697;19;1760;-63
2022/12/14 10:22:26;;;;;;;;;;;;;;;;;;7368078;19;846;-62
2022/12/14 10:24:54;;;;;;;;;;;;;;;;;;7365931;19;858;-63
2022/12/14 10:27:23;;;;;;;;;;;;;;;;;;7365539;19;1237;-63
2022/12/14 10:29:51;;;;;;;;;;;;;;;;;;7367065;19;1881;-63
2022/12/14 10:32:19;;;;;;;;;;;;;;;;;;7367210;19;1768;-64
2022/12/14 10:34:47;;;;;;;;;;;;;;;;;;7366705;19;818;-63
2022/12/14 10:37:15;;;;;;;;;;;;;;;;;;7364402;19;1352;-63
2022/12/14 10:39:44;;;;;;;;;;;;;;;;;;7365203;19;799;-63
2022/12/14 10:42:12;;;;;;;;;;;;;;;;;;7366922;19;1816;-64
2022/12/14 10:44:40;;;;;;;;;;;;;;;;;;7370720;19;1810;-62
2022/12/14 10:47:08;;;;;;;;;;;;;;;;;;7365398;19;1286;-62
2022/12/14 10:49:36;;;;;;;;;;;;;;;;;;7366535;19;1866;-62
2022/12/14 10:52:05;;;;;;;;;;;;;;;;;;7373590;19;845;-63
2022/12/14 10:54:33;;;;;;;;;;;;;;;;;;7375866;19;1841;-63
2022/12/14 10:57:01;;;;;;;;;;;;;;;;;;7372674;19;1284;-62
2022/12/14 10:59:29;;;;;;;;;;;;;;;;;;7371802;19;784;-62
2022/12/14 11:01:57;;;;;;;;;;;;;;;;;;7372956;19;796;-63
2022/12/14 11:04:28;;;;;;;;;;;;;;;;;;7375544;19;1841;-63
2022/12/14 11:06:56;;;;;;;;;;;;;;;;;;7372228;19;1365;-63
2022/12/14 11:09:24;;;;;;;;;;;;;;;;;;7370599;19;1853;-62
2022/12/14 11:11:53;;;;;;;;;;;;;;;;;;7376475;19;2047;-64
2022/12/14 11:14:21;;;;;;;;;;;;;;;;;;7371516;19;810;-64
2022/12/14 11:16:49;;;;;;;;;;;;;;;;;;7370962;19;1290;-63
2022/12/14 11:19:17;;;;;;;;;;;;;;;;;;7371411;19;1590;-64
2022/12/14 11:21:45;;;;;;;;;;;;;;;;;;7372019;19;862;-63
2022/12/14 11:24:13;;;;;;;;;;;;;;;;;;7372278;19;831;-64
2022/12/14 11:26:41;;;;;;;;;;;;;;;;;;7371497;19;1341;-65
2022/12/14 11:29:10;;;;;;;;;;;;;;;;;;7375590;19;1829;-66
2022/12/14 11:31:38;;;;;;;;;;;;;;;;;;7374612;19;2033;-66
2022/12/14 11:34:06;;;;;;;;;;;;;;;;;;7373017;19;830;-65
2022/12/14 11:36:34;;;;;;;;;;;;;;;;;;7371886;19;1309;-63
2022/12/14 11:39:02;;;;;;;;;;;;;;;;;;7370733;19;905;-64
2022/12/14 11:41:30;;;;;;;;;;;;;;;;;;7373139;19;1776;-64
2022/12/14 11:43:59;;;;;;;;;;;;;;;;;;7371187;19;856;-63
2022/12/14 11:46:27;;;;;;;;;;;;;;;;;;7370953;19;1278;-63
2022/12/14 11:48:55;;;;;;;;;;;;;;;;;;7370065;19;794;-63
2022/12/14 11:51:23;;;;;;;;;;;;;;;;;;7368511;19;1825;-63
2022/12/14 11:53:51;;;;;;;;;;;;;;;;;;7369713;19;803;-63
2022/12/14 11:56:20;;;;;;;;;;;;;;;;;;7369350;19;1278;-63
2022/12/14 11:58:48;;;;;;;;;;;;;;;;;;7370158;19;846;-64
2022/12/14 12:01:16;;;;;;;;;;;;;;;;;;7369646;19;780;-64
2022/12/14 12:03:44;;;;;;;;;;;;;;;;;;7371098;19;751;-64
2022/12/14 12:06:12;;;;;;;;;;;;;;;;;;7371340;19;735;-64
2022/12/14 12:08:41;;;;;;;;;;;;;;;;;;7367843;19;1168;-64
2022/12/14 12:11:09;;;;;;;;;;;;;;;;;;7367929;19;1846;-64
2022/12/14 12:13:37;;;;;;;;;;;;;;;;;;7370006;19;828;-63
2022/12/14 12:16:06;;;;;;;;;;;;;;;;;;7369815;19;795;-64
2022/12/14 12:18:34;;;;;;;;;;;;;;;;;;7366670;19;1334;-63
2022/12/14 12:21:02;;;;;;;;;;;;;;;;;;7370012;19;807;-63
2022/12/14 12:23:30;;;;;;;;;;;;;;;;;;7371390;19;811;-63
2022/12/14 12:25:58;;;;;;;;;;;;;;;;;;7370290;19;818;-64
2022/12/14 12:28:26;;;;;;;;;;;;;;;;;;7366419;19;1361;-63
2022/12/14 12:30:55;;;;;;;;;;;;;;;;;;7367123;19;1853;-63
2022/12/14 12:33:23;;;;;;;;;;;;;;;;;;7370417;19;752;-63
2022/12/14 12:35:51;;;;;;;;;;;;;;;;;;7370820;19;811;-63
2022/12/14 12:38:19;;;;;;;;;;;;;;;;;;7366392;19;1271;-63
2022/12/14 12:40:47;;;;;;;;;;;;;;;;;;7369209;19;862;-63
2022/12/14 12:43:15;;;;;;;;;;;;;;;;;;7369328;19;811;-63
2022/12/14 12:45:44;;;;;;;;;;;;;;;;;;7370408;19;782;-62
2022/12/14 12:48:12;;;;;;;;;;;;;;;;;;7367418;19;1308;-63
2022/12/14 12:50:40;;;;;;;;;;;;;;;;;;7369820;19;1857;-63
2022/12/14 12:53:08;;;;;;;;;;;;;;;;;;7369376;19;852;-63
2022/12/14 12:55:37;;;;;;;;;;;;;;;;;;7369141;19;826;-63
2022/12/14 12:58:08;;;;;;;;;;;;;;;;;;7367137;19;1333;-63
2022/12/14 13:00:36;;;;;;;;;;;;;;;;;;7370450;19;770;-63
2022/12/14 13:03:04;;;;;;;;;;;;;;;;;;7368326;19;841;-63
2022/12/14 13:05:32;;;;;;;;;;;;;;;;;;7367960;19;820;-62
2022/12/14 13:08:01;;;;;;;;;;;;;;;;;;7364746;19;1306;-63
2022/12/14 13:10:29;;;;;;;;;;;;;;;;;;7368133;19;1837;-64
2022/12/14 13:12:57;;;;;;;;;;;;;;;;;;7367123;19;2051;-64
2022/12/14 13:15:25;;;;;;;;;;;;;;;;;;7372891;19;1764;-62
2022/12/14 13:17:53;;;;;;;;;;;;;;;;;;7366803;19;1339;-64
2022/12/14 13:20:21;;;;;;;;;;;;;;;;;;7368459;19;915;-63
2022/12/14 13:22:50;;;;;;;;;;;;;;;;;;7368023;19;1840;-63
2022/12/14 13:25:18;;;;;;;;;;;;;;;;;;7368107;19;866;-64
2022/12/14 13:27:46;;;;;;;;;;;;;;;;;;7366472;19;1231;-63
2022/12/14 13:30:14;;;;;;;;;;;;;;;;;;7368239;19;1874;-63
2022/12/14 13:32:43;;;;;;;;;;;;;;;;;;7367783;19;1810;-63
2022/12/14 13:35:11;;;;;;;;;;;;;;;;;;7369113;19;1832;-63
2022/12/14 13:37:39;;;;;;;;;;;;;;;;;;7366395;19;1298;-62
2022/12/14 13:40:08;;;;;;;;;;;;;;;;;;7368486;19;824;-64
2022/12/14 13:42:36;;;;;;;;;;;;;;;;;;7367694;19;827;-62
2022/12/14 13:45:04;;;;;;;;;;;;;;;;;;7372040;19;1757;-64
2022/12/14 13:47:32;;;;;;;;;;;;;;;;;;7364816;19;1255;-63
2022/12/14 13:50:00;;;;;;;;;;;;;;;;;;7366787;19;1845;-63
2022/12/14 13:52:29;;;;;;;;;;;;;;;;;;7367481;19;840;-63
2022/12/14 13:54:57;;;;;;;;;;;;;;;;;;7370873;19;1752;-63
2022/12/14 13:57:25;;;;;;;;;;;;;;;;;;7369926;19;2187;-63
2022/12/14 13:59:53;;;;;;;;;;;;;;;;;;7367114;19;790;-64
2022/12/14 14:02:21;;;;;;;;;;;;;;;;;;7367872;19;1812;-63
2022/12/14 14:04:49;;;;;;;;;;;;;;;;;;7370748;19;1805;-63
2022/12/14 14:07:17;;;;;;;;;;;;;;;;;;7369736;19;1842;-63
2022/12/14 14:09:46;;;;;;;;;;;;;;;;;;7371306;19;1700;-63
2022/12/14 14:12:14;;;;;;;;;;;;;;;;;;7363830;19;1845;-64
2022/12/14 14:14:42;;;;;;;;;;;;;;;;;;7369074;19;1612;-64
2022/12/14 14:17:10;;;;;;;;;;;;;;;;;;7366754;19;1247;-63
2022/12/14 14:19:38;;;;;;;;;;;;;;;;;;7366754;19;803;-64
2022/12/14 14:22:06;;;;;;;;;;;;;;;;;;7367436;19;1177;-64
2022/12/14 14:24:35;;;;;;;;;;;;;;;;;;7367386;19;845;-63
2022/12/14 14:27:03;;;;;;;;;;;;;;;;;;7367217;19;1333;-64
2022/12/14 14:29:31;;;;;;;;;;;;;;;;;;7367790;19;752;-63
2022/12/14 14:31:59;;;;;;;;;;;;;;;;;;7369582;19;1825;-61
2022/12/14 14:34:28;;;;;;;;;;;;;;;;;;7369494;19;1769;-63
2022/12/14 14:36:56;;;;;;;;;;;;;;;;;;7367694;19;2075;-63
2022/12/14 14:39:24;;;;;;;;;;;;;;;;;;7369761;19;1759;-63
2022/12/14 14:41:52;;;;;;;;;;;;;;;;;;7367959;19;800;-63
2022/12/14 14:44:20;;;;;;;;;;;;;;;;;;7371450;19;1799;-63
2022/12/14 14:46:49;;;;;;;;;;;;;;;;;;7366645;19;1274;-65
2022/12/14 14:49:17;;;;;;;;;;;;;;;;;;7369852;19;1787;-63
2022/12/14 14:51:45;;;;;;;;;;;;;;;;;;7369637;19;2303;-63
2022/12/14 14:54:13;;;;;;;;;;;;;;;;;;7369960;19;1776;-63
2022/12/14 14:56:42;;;;;;;;;;;;;;;;;;7368661;19;1802;-64
2022/12/14 14:59:10;;;;;;;;;;;;;;;;;;7368876;19;1835;-63
2022/12/14 15:01:38;;;;;;;;;;;;;;;;;;7366945;19;1804;-62
2022/12/14 15:04:06;;;;;;;;;;;;;;;;;;7367460;19;1845;-63
2022/12/14 15:06:34;;;;;;;;;;;;;;;;;;7368016;19;1819;-63
2022/12/14 15:09:04;;;;;;;;;;;;;;;;;;7368930;19;1822;-63
2022/12/14 15:11:32;;;;;;;;;;;;;;;;;;7368133;19;1855;-63
2022/12/14 15:14:00;;;;;;;;;;;;;;;;;;7365847;19;869;-63
2022/12/14 15:16:28;;;;;;;;;;;;;;;;;;7369130;19;1808;-62
2022/12/14 15:18:56;;;;;;;;;;;;;;;;;;7369429;19;1522;-62
2022/12/14 15:21:25;;;;;;;;;;;;;;;;;;7369363;19;1794;-62
2022/12/14 15:23:53;;;;;;;;;;;;;;;;;;7366657;19;1801;-62
2022/12/14 15:26:21;;;;;;;;;;;;;;;;;;7366954;19;1833;-63
2022/12/14 15:28:49;;;;;;;;;;;;;;;;;;7365357;19;874;-62
2022/12/14 15:31:18;;;;;;;;;;;;;;;;;;7368634;19;1860;-62
2022/12/14 15:33:46;;;;;;;;;;;;;;;;;;7365464;19;774;-62
2022/12/14 15:36:14;;;;;;;;;;;;;;;;;;7372009;19;1623;-64
2022/12/14 15:38:43;;;;;;;;;;;;;;;;;;7371133;19;1842;-62
2022/12/14 15:41:11;;;;;;;;;;;;;;;;;;7374821;19;1811;-63
2022/12/14 15:43:39;;;;;;;;;;;;;;;;;;7372423;19;798;-62
2022/12/14 15:46:08;;;;;;;;;;;;;;;;;;7373128;19;1811;-63
2022/12/14 15:48:36;;;;;;;;;;;;;;;;;;7368575;19;1266;-62
2022/12/14 15:51:04;;;;;;;;;;;;;;;;;;7375351;19;1859;-62
2022/12/14 15:53:32;;;;;;;;;;;;;;;;;;7373343;19;1767;-62
2022/12/14 15:56:00;;;;;;;;;;;;;;;;;;7373389;19;1784;-62
2022/12/14 15:58:28;;;;;;;;;;;;;;;;;;7371394;19;1928;-63
2022/12/14 16:00:57;;;;;;;;;;;;;;;;;;7374080;19;1789;-62
2022/12/14 16:03:25;;;;;;;;;;;;;;;;;;7372789;19;1802;-63
2022/12/14 16:05:53;;;;;;;;;;;;;;;;;;7372934;19;1692;-62
2022/12/14 16:08:21;;;;;;;;;;;;;;;;;;7368474;19;1821;-62
2022/12/14 16:10:49;;;;;;;;;;;;;;;;;;7371800;19;1830;-62
2022/12/14 16:13:17;;;;;;;;;;;;;;;;;;7373593;19;2106;-62
2022/12/14 16:15:45;;;;;;;;;;;;;;;;;;7371520;19;1678;-62
2022/12/14 16:18:14;;;;;;;;;;;;;;;;;;7370151;19;1874;-64
2022/12/14 16:20:42;;;;;;;;;;;;;;;;;;7371801;19;2020;-63
2022/12/14 16:23:10;;;;;;;;;;;;;;;;;;7371159;19;1697;-62
2022/12/14 16:25:38;;;;;;;;;;;;;;;;;;7372700;19;1843;-63
2022/12/14 16:28:06;;;;;;;;;;;;;;;;;;7372076;19;1815;-63
2022/12/14 16:30:35;;;;;;;;;;;;;;;;;;7374564;19;1843;-64
2022/12/14 16:33:03;;;;;;;;;;;;;;;;;;7368045;19;1906;-64
2022/12/14 16:35:31;;;;;;;;;;;;;;;;;;7370353;19;2075;-61
2022/12/14 16:37:59;;;;;;;;;;;;;;;;;;7368027;19;1677;-64
2022/12/14 16:40:27;;;;;;;;;;;;;;;;;;7374619;19;1838;-64
2022/12/14 16:42:55;;;;;;;;;;;;;;;;;;7368274;19;827;-64
2022/12/14 16:45:24;;;;;;;;;;;;;;;;;;7372879;19;1831;-62
2022/12/14 16:47:52;;;;;;;;;;;;;;;;;;7366395;19;1295;-63
2022/12/14 16:50:20;;;;;;;;;;;;;;;;;;7369028;19;1812;-64
2022/12/14 16:52:48;;;;;;;;;;;;;;;;;;7369784;19;1843;-64
2022/12/14 16:55:16;;;;;;;;;;;;;;;;;;7370873;19;1627;-63
2022/12/14 16:57:45;;;;;;;;;;;;;;;;;;7370276;19;2240;-62
2022/12/14 17:00:13;;;;;;;;;;;;;;;;;;7369152;19;2029;-63
2022/12/14 17:02:41;;;;;;;;;;;;;;;;;;7373379;19;1676;-63
2022/12/14 17:05:09;;;;;;;;;;;;;;;;;;7368379;19;1884;-63
2022/12/14 17:07:37;;;;;;;;;;;;;;;;;;7366383;19;1222;-63
2022/12/14 17:10:06;;;;;;;;;;;;;;;;;;7372415;19;1745;-63
2022/12/14 17:12:34;;;;;;;;;;;;;;;;;;7367888;19;1851;-63
2022/12/14 17:15:02;;;;;;;;;;;;;;;;;;7367567;19;1845;-64
2022/12/14 17:17:30;;;;;;;;;;;;;;;;;;7369236;19;1779;-63
2022/12/14 17:19:58;;;;;;;;;;;;;;;;;;7370029;19;1781;-62
2022/12/14 17:22:26;;;;;;;;;;;;;;;;;;7368067;19;840;-63
2022/12/14 17:24:55;;;;;;;;;;;;;;;;;;7368283;19;1788;-64
2022/12/14 17:27:25;;;;;;;;;;;;;;;;;;7365918;19;1621;-63
2022/12/14 17:29:53;;;;;;;;;;;;;;;;;;7370405;19;1843;-64
2022/12/14 17:32:21;;;;;;;;;;;;;;;;;;7370070;19;1838;-64